Time;durP1;ratioP1;P1;durP2;ratioP2;P2;SDS_P1;SDS_P2;PMS_P1;PMS_P2;Temp;Humidity;BMP_temperature;BMP_pressure;BME280_temperature;BME280_humidity;BME280_pressure;Samples;Min_cycle;Max_cycle;Signal;HPM_P1;HPM_P2
2022/12/13 00:01:22;;;;;;;46.78;25.73;;;;;;;-2.45;100.00;101237.47;5018322;28;20270;-48
2022/12/13 00:03:48;;;;;;;46.70;26.02;;;;;;;-2.53;100.00;101229.47;5015961;28;20728;-48
2022/12/13 00:06:14;;;;;;;46.90;26.75;;;;;;;-2.53;100.00;101228.56;5024433;28;20207;-48
2022/12/13 00:08:40;;;;;;;48.42;26.10;;;;;;;-2.49;100.00;101226.06;5012772;28;20239;-47
2022/12/13 00:11:09;;;;;;;46.67;26.15;;;;;;;-2.59;100.00;101218.81;5018954;28;20542;-48
2022/12/13 00:13:35;;;;;;;45.50;24.85;;;;;;;-2.62;100.00;101220.53;5019286;28;20216;-48
2022/12/13 00:16:04;;;;;;;46.40;25.45;;;;;;;-2.54;100.00;101218.91;5012421;28;20180;-48
2022/12/13 00:18:31;;;;;;;46.45;26.17;;;;;;;-2.66;100.00;101214.31;5022099;28;20177;-47
2022/12/13 00:20:56;;;;;;;42.92;23.70;;;;;;;-2.59;100.00;101210.97;5016299;28;20228;-49
2022/12/13 00:23:22;;;;;;;46.92;25.50;;;;;;;-2.61;100.00;101209.16;5014690;28;20758;-47
2022/12/13 00:25:48;;;;;;;41.00;22.85;;;;;;;-2.63;100.00;101218.72;5018179;28;20650;-48
2022/12/13 00:28:14;;;;;;;39.13;23.15;;;;;;;-2.64;100.00;101207.34;5018383;28;20180;-47
2022/12/13 00:30:40;;;;;;;43.47;24.58;;;;;;;-2.70;100.00;101201.97;5013318;28;20744;-48
2022/12/13 00:33:05;;;;;;;41.03;24.05;;;;;;;-2.75;100.00;101212.38;5016421;28;20200;-47
2022/12/13 00:35:40;;;;;;;45.05;25.38;;;;;;;-2.81;100.00;101203.47;5012121;28;20177;-48
2022/12/13 00:38:06;;;;;;;42.58;24.42;;;;;;;-2.71;100.00;101200.22;5012468;28;20596;-48
2022/12/13 00:40:31;;;;;;;43.40;24.73;;;;;;;-2.73;100.00;101194.06;5019307;23;20217;-42
2022/12/13 00:42:57;;;;;;;49.33;26.35;;;;;;;-2.81;100.00;101195.63;5006455;28;20216;-40
2022/12/13 00:45:22;;;;;;;45.80;26.35;;;;;;;-2.92;100.00;101198.88;5027058;28;20192;-40
2022/12/13 00:47:48;;;;;;;47.42;26.92;;;;;;;-2.92;100.00;101190.13;5021570;28;20597;-42
2022/12/13 00:50:13;;;;;;;51.25;27.55;;;;;;;-3.05;100.00;101196.81;5018340;28;20286;-41
2022/12/13 00:52:39;;;;;;;47.40;27.35;;;;;;;-3.05;100.00;101194.19;5016589;28;20172;-39
2022/12/13 00:55:05;;;;;;;50.50;26.10;;;;;;;-3.14;100.00;101196.63;5019592;28;20276;-41
2022/12/13 00:57:30;;;;;;;44.88;25.27;;;;;;;-3.16;100.00;101195.69;5018765;28;20195;-39
2022/12/13 00:59:55;;;;;;;50.10;25.67;;;;;;;-3.18;100.00;101194.78;5015027;28;20220;-39
2022/12/13 01:02:21;;;;;;;49.95;26.42;;;;;;;-3.27;100.00;101191.94;5019581;28;20538;-39
2022/12/13 01:04:50;;;;;;;45.53;24.40;;;;;;;-3.24;100.00;101205.09;5016601;28;20247;-42
2022/12/13 01:07:16;;;;;;;52.22;26.77;;;;;;;-3.39;100.00;101203.91;5017951;28;20207;-42
2022/12/13 01:09:42;;;;;;;45.38;25.67;;;;;;;-3.27;100.00;101200.69;5019325;28;20230;-41
2022/12/13 01:12:10;;;;;;;57.10;28.23;;;;;;;-3.35;100.00;101200.47;5019847;28;20707;-40
2022/12/13 01:14:38;;;;;;;52.20;27.63;;;;;;;-3.44;100.00;101202.88;5017428;28;20233;-43
2022/12/13 01:17:04;;;;;;;53.85;27.33;;;;;;;-3.45;100.00;101205.47;5020893;28;20204;-42
2022/12/13 01:19:30;;;;;;;47.10;25.08;;;;;;;-3.45;100.00;101197.63;5018427;28;20360;-41
2022/12/13 01:22:02;;;;;;;51.63;26.58;;;;;;;-3.52;100.00;101191.31;5019327;28;20622;-41
2022/12/13 01:24:28;;;;;;;51.80;27.05;;;;;;;-3.51;100.00;101195.72;5027919;28;20258;-42
2022/12/13 01:26:54;;;;;;;50.05;27.35;;;;;;;-3.52;100.00;101202.69;5014766;28;20184;-41
2022/12/13 01:29:20;;;;;;;49.40;25.30;;;;;;;-3.51;100.00;101198.34;5019233;28;20199;-40
2022/12/13 01:31:47;;;;;;;55.55;28.08;;;;;;;-3.50;100.00;101209.69;5019112;28;20202;-41
2022/12/13 01:34:15;;;;;;;49.53;24.58;;;;;;;-3.45;100.00;101202.88;5019806;28;20255;-41
2022/12/13 01:36:43;;;;;;;50.45;25.70;;;;;;;-3.46;100.00;101191.47;5017508;28;20189;-43
2022/12/13 01:39:10;;;;;;;46.47;26.40;;;;;;;-3.47;100.00;101194.97;5022258;28;20239;-42
2022/12/13 01:41:37;;;;;;;50.17;27.05;;;;;;;-3.52;100.00;101197.47;5017576;28;20204;-42
2022/12/13 01:44:42;;;;;;;45.17;25.30;;;;;;;-3.54;100.00;101200.91;5017560;28;20258;-40
2022/12/13 01:47:08;;;;;;;47.55;25.67;;;;;;;-3.59;100.00;101194.63;5016326;28;20192;-39
2022/12/13 01:49:34;;;;;;;53.72;26.55;;;;;;;-3.57;100.00;101200.81;5020204;28;20197;-41
2022/12/13 01:52:04;;;;;;;50.97;27.30;;;;;;;-3.60;100.00;101185.91;5015454;28;20547;-40
2022/12/13 01:54:36;;;;;;;50.17;26.55;;;;;;;-3.50;100.00;101196.59;5018249;28;20225;-42
2022/12/13 01:57:05;;;;;;;51.75;27.27;;;;;;;-3.50;100.00;101194.88;5016761;28;20322;-40
2022/12/13 01:59:34;;;;;;;49.42;25.70;;;;;;;-3.48;100.00;101187.06;5016845;28;20180;-41
2022/12/13 02:02:00;;;;;;;49.25;27.13;;;;;;;-3.44;100.00;101187.16;5018468;28;20250;-41
2022/12/13 02:04:30;;;;;;;53.17;26.85;;;;;;;-3.40;100.00;101190.75;5020894;28;20212;-40
2022/12/13 02:06:56;;;;;;;54.85;29.15;;;;;;;-3.44;100.00;101191.53;5017740;28;20190;-40
2022/12/13 02:09:22;;;;;;;56.30;27.67;;;;;;;-3.63;100.00;101193.69;5016261;28;20255;-40
2022/12/13 02:11:48;;;;;;;52.25;27.75;;;;;;;-3.67;100.00;101196.16;5015042;28;20465;-40
2022/12/13 02:14:14;;;;;;;50.22;27.75;;;;;;;-3.63;100.00;101177.97;5013496;28;20661;-42
2022/12/13 02:17:24;;;;;;;57.45;29.98;;;;;;;-3.58;100.00;101181.59;5016299;28;20173;-41
2022/12/13 02:20:11;;;;;;;45.60;24.98;;;;;;;-3.46;100.00;101178.38;4952988;28;20966;-42
2022/12/13 02:22:46;;;;;;;49.72;26.25;;;;;;;-3.44;100.00;101179.31;5015847;28;20311;-39
2022/12/13 02:25:23;;;;;;;52.25;28.15;;;;;;;-3.41;100.00;101194.19;5016197;28;20182;-41
2022/12/13 02:28:39;;;;;;;49.30;25.77;;;;;;;-3.28;100.00;101187.53;5018929;28;20218;-40
2022/12/13 02:31:07;;;;;;;49.72;25.02;;;;;;;-3.23;100.00;101194.66;4966465;28;20214;-40
2022/12/13 02:33:51;;;;;;;51.78;27.45;;;;;;;-3.22;100.00;101192.91;5011911;28;20583;-43
2022/12/13 02:36:27;;;;;;;52.80;26.73;;;;;;;-3.22;100.00;101179.81;5018687;28;20256;-40
2022/12/13 02:39:01;;;;;;;50.28;27.55;;;;;;;-3.22;100.00;101179.81;5014848;28;20191;-42
2022/12/13 02:41:38;;;;;;;54.90;29.15;;;;;;;-3.19;100.00;101172.03;5017740;28;20212;-40
2022/12/13 02:44:16;;;;;;;47.78;26.45;;;;;;;-3.13;100.00;101174.78;5015987;28;20197;-41
2022/12/13 02:46:51;;;;;;;53.92;29.02;;;;;;;-3.15;100.00;101181.72;5016008;28;20253;-41
2022/12/13 02:49:19;;;;;;;51.53;28.52;;;;;;;-3.07;100.00;101176.69;5016885;28;20538;-42
2022/12/13 02:51:44;;;;;;;57.50;28.42;;;;;;;-3.11;100.00;101178.34;5018992;28;20205;-42
2022/12/13 02:54:10;;;;;;;52.58;28.88;;;;;;;-3.15;100.00;101172.16;5017173;28;20180;-40
2022/12/13 02:56:35;;;;;;;52.03;28.15;;;;;;;-3.20;100.00;101168.53;5017524;28;20207;-42
2022/12/13 02:59:07;;;;;;;53.67;29.40;;;;;;;-3.18;100.00;101177.31;5016055;28;20647;-41
2022/12/13 03:01:48;;;;;;;52.65;29.05;;;;;;;-3.11;100.00;101175.72;5018547;28;20653;-42
2022/12/13 03:08:10;;;;;;;52.10;28.13;;;;;;;-3.10;100.00;101177.50;4995158;28;20288;-39
2022/12/13 03:10:47;;;;;;;49.47;27.27;;;;;;;-3.09;100.00;101155.66;4982056;28;20225;-41
2022/12/13 03:13:35;;;;;;;52.28;28.25;;;;;;;-3.10;100.00;101161.78;5023630;28;20227;-42
2022/12/13 03:16:08;;;;;;;49.67;28.15;;;;;;;-3.09;100.00;101158.28;5019754;28;20173;-39
2022/12/13 03:18:34;;;;;;;53.88;29.58;;;;;;;-3.04;100.00;101156.69;5017970;28;20181;-42
2022/12/13 03:21:03;;;;;;;50.85;27.25;;;;;;;-3.09;100.00;101155.66;5020409;28;20781;-39
2022/12/13 03:23:29;;;;;;;49.05;27.05;;;;;;;-3.12;100.00;101145.13;5020850;28;20204;-42
2022/12/13 03:26:09;;;;;;;48.17;27.23;;;;;;;-3.18;100.00;101150.22;5018968;28;20195;-42
2022/12/13 03:28:36;;;;;;;46.70;27.90;;;;;;;-3.15;100.00;101153.81;5023172;28;20612;-41
2022/12/13 03:31:01;;;;;;;43.63;24.45;;;;;;;-3.13;100.00;101145.97;5020070;28;20299;-41
2022/12/13 03:33:27;;;;;;;45.78;27.80;;;;;;;-3.08;100.00;101151.31;5018637;28;20263;-39
2022/12/13 03:35:52;;;;;;;51.80;25.67;;;;;;;-3.06;100.00;101157.47;5027879;28;20188;-40
2022/12/13 03:38:18;;;;;;;50.10;27.90;;;;;;;-3.11;100.00;101149.50;5024375;28;20271;-40
2022/12/13 03:40:44;;;;;;;52.92;28.40;;;;;;;-3.15;100.00;101152.91;5030711;28;20216;-41
2022/12/13 03:43:10;;;;;;;54.03;28.05;;;;;;;-3.14;100.00;101131.09;5024907;28;20207;-41
2022/12/13 03:45:36;;;;;;;50.78;28.25;;;;;;;-3.14;100.00;101150.31;5016163;28;20181;-41
2022/12/13 03:48:01;;;;;;;54.55;28.88;;;;;;;-3.18;100.00;101148.47;5021327;28;20199;-41
2022/12/13 03:50:26;;;;;;;46.92;26.88;;;;;;;-3.30;100.00;101150.84;5019638;28;20209;-42
2022/12/13 03:53:00;;;;;;;47.03;26.25;;;;;;;-3.26;100.00;101143.91;5026980;28;20277;-41
2022/12/13 03:55:26;;;;;;;47.72;25.67;;;;;;;-3.19;100.00;101148.44;5021974;28;20180;-41
2022/12/13 03:57:51;;;;;;;44.85;26.35;;;;;;;-3.36;100.00;101148.06;5018502;28;20177;-41
2022/12/13 04:00:17;;;;;;;44.45;24.77;;;;;;;-3.34;100.00;101138.50;5024843;28;20254;-40
2022/12/13 04:02:42;;;;;;;46.55;26.73;;;;;;;-3.36;100.00;101156.81;5018988;28;20715;-40
2022/12/13 04:05:08;;;;;;;46.63;25.27;;;;;;;-3.35;100.00;101153.31;5017007;28;20246;-39
2022/12/13 04:07:34;;;;;;;46.05;25.98;;;;;;;-3.31;100.00;101149.94;5022218;28;20692;-42
2022/12/13 04:09:59;;;;;;;42.80;24.08;;;;;;;-3.26;100.00;101149.16;5017892;28;20686;-39
2022/12/13 04:15:09;;;;;;;48.65;27.08;;;;;;;-3.57;100.00;101143.19;5018154;28;20548;-41
2022/12/13 04:17:34;;;;;;;46.15;25.23;;;;;;;-3.61;100.00;101130.88;5022785;28;20180;-40
2022/12/13 04:20:00;;;;;;;48.63;26.73;;;;;;;-3.54;100.00;101133.69;5018429;28;20204;-41
2022/12/13 04:22:25;;;;;;;47.92;27.55;;;;;;;-3.58;100.00;101138.81;5020912;28;20284;-39
2022/12/13 04:24:51;;;;;;;45.13;26.42;;;;;;;-3.48;100.00;101132.94;5018803;28;20494;-39
2022/12/13 04:27:16;;;;;;;45.05;25.63;;;;;;;-3.47;100.00;101142.56;5017333;28;20184;-40
2022/12/13 04:29:42;;;;;;;48.53;26.58;;;;;;;-3.43;100.00;101130.41;5022721;28;20192;-45
2022/12/13 04:32:07;;;;;;;45.40;25.40;;;;;;;-3.31;100.00;101128.97;5021810;28;20187;-40
2022/12/13 04:34:33;;;;;;;45.88;26.23;;;;;;;-3.28;100.00;101120.31;5018799;28;20190;-40
2022/12/13 04:36:58;;;;;;;46.03;25.55;;;;;;;-3.26;100.00;101123.84;5018295;28;20185;-38
2022/12/13 04:39:24;;;;;;;45.15;26.08;;;;;;;-3.19;100.00;101117.91;5022533;28;20200;-40
2022/12/13 04:41:51;;;;;;;43.60;26.13;;;;;;;-3.22;100.00;101128.28;5020974;28;20216;-43
2022/12/13 04:44:18;;;;;;;50.80;29.00;;;;;;;-3.48;100.00;101130.31;5017021;28;20312;-38
2022/12/13 04:46:43;;;;;;;46.33;25.05;;;;;;;-3.42;100.00;101127.84;5018043;28;20541;-40
2022/12/13 04:49:09;;;;;;;47.83;27.23;;;;;;;-3.40;100.00;101134.00;5020599;28;20259;-40
2022/12/13 04:51:34;;;;;;;44.13;25.33;;;;;;;-3.33;100.00;101114.94;5021076;28;20291;-40
2022/12/13 04:54:00;;;;;;;50.75;27.80;;;;;;;-3.38;100.00;101126.19;5019118;28;20230;-40
2022/12/13 04:56:25;;;;;;;46.08;26.50;;;;;;;-3.30;100.00;101116.78;5018692;28;20192;-41
2022/12/13 04:58:51;;;;;;;49.85;27.67;;;;;;;-3.24;100.00;101114.28;5016872;28;20243;-41
2022/12/13 05:01:16;;;;;;;52.13;27.58;;;;;;;-3.24;100.00;101123.88;5018603;28;20279;-42
2022/12/13 05:03:42;;;;;;;47.28;27.17;;;;;;;-3.29;100.00;101121.16;5017775;28;20217;-40
2022/12/13 05:06:10;;;;;;;49.75;28.00;;;;;;;-3.22;100.00;101128.28;5018424;28;20184;-40
2022/12/13 05:08:36;;;;;;;50.80;27.48;;;;;;;-3.20;100.00;101117.84;5017932;28;20190;-40
2022/12/13 05:11:06;;;;;;;53.30;28.45;;;;;;;-3.33;100.00;101125.44;5019264;28;20243;-39
2022/12/13 05:13:31;;;;;;;50.28;27.25;;;;;;;-3.17;100.00;101110.06;5019272;28;20219;-41
2022/12/13 05:16:02;;;;;;;50.05;28.73;;;;;;;-3.22;100.00;101123.06;5021331;28;20550;-41
2022/12/13 05:18:28;;;;;;;46.85;27.25;;;;;;;-3.21;100.00;101123.97;5015654;28;20189;-39
2022/12/13 05:20:55;;;;;;;48.97;27.48;;;;;;;-3.15;100.00;101103.09;5018108;28;20594;-38
2022/12/13 05:23:23;;;;;;;53.28;28.02;;;;;;;-3.13;100.00;101111.91;5019566;28;20706;-40
2022/12/13 05:25:50;;;;;;;49.63;27.83;;;;;;;-3.21;100.00;101105.63;5020827;28;20184;-41
2022/12/13 05:28:15;;;;;;;54.55;27.38;;;;;;;-3.17;100.00;101100.47;5021588;28;20790;-40
2022/12/13 05:30:42;;;;;;;50.83;28.75;;;;;;;-3.23;100.00;101109.94;5025308;28;20211;-40
2022/12/13 05:33:08;;;;;;;50.40;27.60;;;;;;;-3.22;100.00;101116.94;5019813;28;20260;-41
2022/12/13 05:35:34;;;;;;;51.38;27.35;;;;;;;-3.08;100.00;101109.38;5018737;28;20185;-40
2022/12/13 05:37:59;;;;;;;52.38;29.58;;;;;;;-3.16;100.00;101112.72;5016193;28;20181;-39
2022/12/13 05:40:27;;;;;;;46.35;26.08;;;;;;;-3.08;100.00;101109.38;5016412;28;20212;-38
2022/12/13 05:42:53;;;;;;;51.60;27.60;;;;;;;-3.00;100.00;101113.94;5019392;28;20251;-41
2022/12/13 05:45:19;;;;;;;51.55;28.30;;;;;;;-3.09;100.00;101108.50;5015547;28;20176;-42
2022/12/13 05:47:45;;;;;;;52.40;27.65;;;;;;;-3.04;100.00;101119.06;5015890;28;20185;-39
2022/12/13 05:50:12;;;;;;;50.83;28.48;;;;;;;-3.05;100.00;101109.44;5023188;28;20254;-40
2022/12/13 05:52:38;;;;;;;60.42;29.23;;;;;;;-3.04;100.00;101113.81;5018576;28;20594;-40
2022/12/13 05:55:04;;;;;;;49.60;28.52;;;;;;;-3.03;100.00;101108.63;5018421;28;20291;-40
2022/12/13 05:57:30;;;;;;;51.33;27.08;;;;;;;-3.12;100.00;101105.81;5021768;28;20192;-39
2022/12/13 05:59:56;;;;;;;46.22;27.00;;;;;;;-3.07;100.00;101111.16;5024082;28;20183;-38
2022/12/13 06:02:21;;;;;;;46.28;27.77;;;;;;;-3.13;100.00;101106.66;5019033;28;20187;-40
2022/12/13 06:04:47;;;;;;;47.83;28.02;;;;;;;-3.17;100.00;101100.47;5018942;28;20560;-40
2022/12/13 06:07:13;;;;;;;47.35;27.23;;;;;;;-3.18;100.00;101092.56;5016715;28;20204;-43
2022/12/13 06:09:38;;;;;;;47.65;26.73;;;;;;;-3.16;100.00;101098.72;5017898;28;20573;-41
2022/12/13 06:12:04;;;;;;;49.25;26.88;;;;;;;-3.11;100.00;101097.97;5018880;28;20539;-40
2022/12/13 06:14:30;;;;;;;47.72;25.85;;;;;;;-3.00;100.00;101087.72;5019669;28;20261;-40
2022/12/13 06:16:55;;;;;;;43.05;25.38;;;;;;;-2.98;100.00;101093.00;5017133;28;20192;-40
2022/12/13 06:19:21;;;;;;;50.75;26.92;;;;;;;-2.95;100.00;101104.44;5017167;28;20222;-40
2022/12/13 06:21:48;;;;;;;50.72;27.15;;;;;;;-2.93;100.00;101100.13;5017950;28;20674;-40
2022/12/13 06:24:15;;;;;;;50.00;27.73;;;;;;;-2.88;100.00;101101.97;5017326;28;20201;-41
2022/12/13 06:26:41;;;;;;;53.03;28.67;;;;;;;-2.92;100.00;101090.50;5016129;28;20223;-41
2022/12/13 06:29:07;;;;;;;51.83;29.23;;;;;;;-3.00;100.00;101100.81;5018809;28;20952;-41
2022/12/13 06:31:32;;;;;;;45.85;28.40;;;;;;;-3.06;100.00;101098.09;5014463;28;20231;-40
2022/12/13 06:34:02;;;;;;;47.38;27.92;;;;;;;-2.98;100.00;101091.25;5016661;28;20652;-41
2022/12/13 06:36:27;;;;;;;49.03;27.45;;;;;;;-2.90;100.00;101094.06;5016462;28;20187;-41
2022/12/13 06:38:53;;;;;;;45.30;26.73;;;;;;;-2.86;100.00;101095.88;5015027;28;20204;-41
2022/12/13 06:41:18;;;;;;;43.05;26.20;;;;;;;-2.98;100.00;101091.25;5006688;23;20394;-48
2022/12/13 06:43:45;;;;;;;46.90;26.00;;;;;;;-3.00;100.00;101090.34;4982378;28;20228;-48
2022/12/13 06:46:11;;;;;;;48.67;26.33;;;;;;;-3.02;100.00;101093.78;4988215;28;20236;-49
2022/12/13 06:48:39;;;;;;;45.05;25.63;;;;;;;-3.08;100.00;101091.03;4985927;28;20196;-49
2022/12/13 06:51:06;;;;;;;41.60;24.05;;;;;;;-3.08;100.00;101085.78;4988069;28;20201;-47
2022/12/13 06:53:33;;;;;;;43.95;25.35;;;;;;;-3.09;100.00;101081.41;4989064;28;20188;-48
2022/12/13 06:56:08;;;;;;;41.85;25.70;;;;;;;-3.12;100.00;101087.47;4993436;28;20248;-47
2022/12/13 06:58:35;;;;;;;47.38;25.48;;;;;;;-3.07;100.00;101077.97;4986263;28;20189;-47
2022/12/13 07:01:03;;;;;;;40.63;25.25;;;;;;;-3.14;100.00;101090.06;4986492;28;20672;-47
2022/12/13 07:03:29;;;;;;;43.05;24.65;;;;;;;-3.11;100.00;101079.63;4980954;28;20676;-47
2022/12/13 07:05:55;;;;;;;43.53;24.98;;;;;;;-3.11;100.00;101092.72;4990977;28;20197;-49
2022/12/13 07:08:20;;;;;;;42.30;26.30;;;;;;;-2.99;100.00;101088.63;4987622;28;20574;-48
2022/12/13 07:10:46;;;;;;;41.67;25.98;;;;;;;-3.08;100.00;101097.16;4983990;28;20256;-48
2022/12/13 07:13:11;;;;;;;42.92;25.52;;;;;;;-3.06;100.00;101100.72;4982485;28;20626;-46
2022/12/13 07:15:37;;;;;;;41.90;26.13;;;;;;;-3.07;100.00;101093.69;4980363;28;20181;-47
2022/12/13 07:18:03;;;;;;;48.15;26.40;;;;;;;-3.13;100.00;101101.41;4981936;28;20324;-47
2022/12/13 07:20:28;;;;;;;40.30;25.20;;;;;;;-3.15;100.00;101096.16;4984707;28;20218;-47
2022/12/13 07:22:55;;;;;;;48.50;24.75;;;;;;;-3.08;100.00;101106.75;4992775;28;20233;-48
2022/12/13 07:25:21;;;;;;;37.80;23.90;;;;;;;-3.11;100.00;101108.44;4991219;28;20177;-47
2022/12/13 07:27:47;;;;;;;43.10;24.15;;;;;;;-3.07;100.00;101095.44;4987282;28;20283;-47
2022/12/13 07:30:14;;;;;;;39.88;24.00;;;;;;;-3.17;100.00;101105.72;4985297;28;20340;-49
2022/12/13 07:32:39;;;;;;;41.63;23.63;;;;;;;-3.13;100.00;101102.31;4986591;28;20237;-48
2022/12/13 07:35:05;;;;;;;38.63;22.38;;;;;;;-3.16;100.00;101110.09;4985480;28;20190;-49
2022/12/13 07:37:30;;;;;;;36.67;22.58;;;;;;;-3.14;100.00;101103.16;4987080;28;20185;-47
2022/12/13 07:39:56;;;;;;;39.72;23.15;;;;;;;-3.13;100.00;101098.78;4987779;28;20271;-46
2022/12/13 07:42:21;;;;;;;34.13;21.50;;;;;;;-3.08;100.00;101099.78;4987894;28;20185;-48
2022/12/13 07:44:47;;;;;;;35.22;21.27;;;;;;;-3.11;100.00;101100.59;4987635;28;20639;-48
2022/12/13 07:47:12;;;;;;;37.63;21.38;;;;;;;-3.04;100.00;101105.97;4987005;28;20196;-46
2022/12/13 07:49:39;;;;;;;35.17;21.45;;;;;;;-3.06;100.00;101100.72;4981273;28;20228;-46
2022/12/13 07:52:10;;;;;;;30.17;20.30;;;;;;;-3.01;100.00;101112.16;4981975;28;20273;-47
2022/12/13 07:54:35;;;;;;;35.33;21.10;;;;;;;-3.00;100.00;101120.91;4987613;28;20666;-47
2022/12/13 07:57:01;;;;;;;36.65;21.10;;;;;;;-3.06;100.00;101119.06;4983372;28;20260;-47
2022/12/13 07:59:26;;;;;;;32.53;19.63;;;;;;;-3.05;100.00;101120.81;4983402;28;20189;-48
2022/12/13 08:01:52;;;;;;;32.40;19.90;;;;;;;-3.03;100.00;101115.63;4984419;28;20233;-49
2022/12/13 08:04:18;;;;;;;31.15;19.25;;;;;;;-3.07;100.00;101122.50;4985604;28;20210;-50
2022/12/13 08:06:44;;;;;;;36.83;19.92;;;;;;;-3.06;100.00;101115.53;4980362;28;20328;-48
2022/12/13 08:09:10;;;;;;;30.98;18.58;;;;;;;-3.04;100.00;101127.84;4984352;28;20704;-46
2022/12/13 08:11:35;;;;;;;32.15;18.67;;;;;;;-2.96;100.00;101131.50;4987481;28;20213;-46
2022/12/13 08:14:01;;;;;;;33.08;18.75;;;;;;;-2.90;100.00;101129.00;4983320;28;20190;-46
2022/12/13 08:16:27;;;;;;;33.20;18.33;;;;;;;-2.93;100.00;101130.66;4981137;28;20243;-48
2022/12/13 08:18:53;;;;;;;29.35;18.08;;;;;;;-2.95;100.00;101124.53;4984828;28;20190;-49
2022/12/13 08:21:19;;;;;;;27.45;17.20;;;;;;;-2.97;100.00;101115.75;4983294;28;20205;-50
2022/12/13 08:23:45;;;;;;;30.60;17.42;;;;;;;-3.01;100.00;101122.66;4985158;28;20224;-48
2022/12/13 08:26:10;;;;;;;29.88;17.25;;;;;;;-2.97;100.00;101111.38;4988592;28;20653;-46
2022/12/13 08:28:36;;;;;;;26.35;16.38;;;;;;;-3.00;100.00;101116.53;4983259;28;20890;-46
2022/12/13 08:31:06;;;;;;;28.67;16.58;;;;;;;-3.14;100.00;101108.41;4981600;28;20197;-47
2022/12/13 08:33:33;;;;;;;29.70;16.95;;;;;;;-3.20;100.00;101102.13;4982391;28;20181;-48
2022/12/13 08:36:07;;;;;;;29.33;16.98;;;;;;;-3.26;100.00;101107.22;4986923;28;20283;-48
2022/12/13 08:38:33;;;;;;;26.98;16.15;;;;;;;-3.22;100.00;101107.31;4979926;28;20196;-48
2022/12/13 08:40:58;;;;;;;28.58;17.08;;;;;;;-3.24;100.00;101100.28;4991321;28;20222;-46
2022/12/13 08:43:24;;;;;;;31.13;17.77;;;;;;;-3.22;100.00;101103.84;4982377;28;20201;-48
2022/12/13 08:45:49;;;;;;;31.42;18.38;;;;;;;-3.31;100.00;101107.13;4978766;28;20557;-49
2022/12/13 08:48:15;;;;;;;32.15;19.45;;;;;;;-3.22;100.00;101103.84;4977627;28;20593;-48
2022/12/13 08:50:40;;;;;;;33.60;18.60;;;;;;;-3.23;100.00;101109.94;4978489;28;20239;-46
2022/12/13 08:53:06;;;;;;;32.67;20.13;;;;;;;-3.11;100.00;101107.56;4979764;28;20565;-49
2022/12/13 08:55:31;;;;;;;34.63;20.58;;;;;;;-3.07;100.00;101100.66;4980704;28;20186;-48
2022/12/13 08:57:57;;;;;;;35.90;19.75;;;;;;;-3.06;100.00;101099.81;4971750;28;20185;-46
2022/12/13 09:00:22;;;;;;;36.95;21.42;;;;;;;-3.17;100.00;101110.06;4981032;28;21084;-47
2022/12/13 09:02:48;;;;;;;33.58;20.83;;;;;;;-3.08;100.00;101099.78;4977347;28;20668;-46
2022/12/13 09:05:14;;;;;;;35.20;21.90;;;;;;;-3.02;100.00;101102.53;4984675;28;20276;-49
2022/12/13 09:07:40;;;;;;;36.30;21.02;;;;;;;-2.97;100.00;101100.91;4982652;28;20373;-41
2022/12/13 09:10:07;;;;;;;37.67;22.33;;;;;;;-3.06;100.00;101105.03;4983226;28;20289;-43
2022/12/13 09:12:32;;;;;;;35.92;20.95;;;;;;;-2.97;100.00;101106.16;4981912;28;20576;-40
2022/12/13 09:14:57;;;;;;;32.67;20.75;;;;;;;-2.81;100.00;101114.34;4983301;28;20200;-42
2022/12/13 09:17:23;;;;;;;38.65;22.25;;;;;;;-3.07;100.00;101114.66;4985053;28;20239;-42
2022/12/13 09:19:48;;;;;;;35.60;22.08;;;;;;;-3.04;100.00;101112.13;4983282;28;20190;-41
2022/12/13 09:22:15;;;;;;;38.78;22.90;;;;;;;-3.04;100.00;101103.34;4981932;28;20287;-42
2022/12/13 09:24:40;;;;;;;39.47;22.58;;;;;;;-2.86;100.00;101113.34;4984981;28;20208;-40
2022/12/13 09:27:06;;;;;;;39.20;22.27;;;;;;;-2.94;100.00;101102.69;4982981;28;20243;-40
2022/12/13 09:29:33;;;;;;;44.03;22.40;;;;;;;-2.73;100.00;101111.00;4982216;28;20190;-41
2022/12/13 09:31:59;;;;;;;41.72;22.45;;;;;;;-2.60;100.00;101103.38;4974662;28;20206;-41
2022/12/13 09:34:25;;;;;;;37.75;22.50;;;;;;;-2.50;100.00;101114.06;4980707;28;20329;-39
2022/12/13 09:36:50;;;;;;;38.88;22.25;;;;;;;-2.42;100.00;101113.38;4993696;28;20275;-41
2022/12/13 09:39:16;;;;;;;36.90;21.88;;;;;;;-2.31;100.00;101117.94;4978285;28;20605;-42
2022/12/13 09:41:49;;;;;;;30.35;19.40;;;;;;;-2.41;100.00;101112.50;4979063;28;20213;-40
2022/12/13 09:44:21;;;;;;;37.78;21.92;;;;;;;-2.42;100.00;101102.88;4978603;28;20367;-41
2022/12/13 09:46:49;;;;;;;35.15;19.95;;;;;;;-2.39;100.00;101105.53;4981555;28;20792;-42
2022/12/13 09:49:17;;;;;;;34.20;20.95;;;;;;;-2.33;100.00;101109.16;4978795;28;20185;-42
2022/12/13 09:51:49;;;;;;;33.72;19.85;;;;;;;-2.34;100.00;101106.50;4976282;28;20640;-41
2022/12/13 09:54:19;;;;;;;32.17;20.02;;;;;;;-2.25;100.00;101111.03;4976616;28;20181;-42
2022/12/13 09:56:49;;;;;;;36.80;22.30;;;;;;;-2.16;100.00;101104.22;4980727;28;20378;-42
2022/12/13 09:59:16;;;;;;;33.45;20.80;;;;;;;-2.18;100.00;101094.56;4974720;28;20595;-42
2022/12/13 10:01:42;;;;;;;36.55;20.20;;;;;;;-2.22;100.00;101087.50;4980317;28;20499;-41
2022/12/13 10:04:11;;;;;;;31.15;18.60;;;;;;;-1.99;100.00;101082.63;4991512;28;20267;-39
2022/12/13 10:06:38;;;;;;;33.15;18.77;;;;;;;-1.88;100.00;101081.06;4980930;28;20681;-41
2022/12/13 10:09:08;;;;;;;30.50;19.45;;;;;;;-1.88;100.00;101076.72;4981178;28;20181;-44
2022/12/13 10:11:34;;;;;;;28.38;18.92;;;;;;;-1.90;100.00;101075.81;4982882;28;20218;-43
2022/12/13 10:14:05;;;;;;;24.38;17.05;;;;;;;-1.85;100.00;101070.63;4984400;28;20184;-41
2022/12/13 10:16:34;;;;;;;31.35;19.02;;;;;;;-1.82;100.00;101069.78;4977742;28;20213;-42
2022/12/13 10:19:01;;;;;;;32.63;19.25;;;;;;;-1.82;100.00;101069.78;4981017;28;20181;-41
2022/12/13 10:21:53;;;;;;;30.38;17.38;;;;;;;-1.84;100.00;101067.13;4978519;28;20721;-43
2022/12/13 10:24:24;;;;;;;29.38;17.92;;;;;;;-1.77;99.62;101057.59;4973595;28;20243;-42
2022/12/13 10:26:50;;;;;;;29.30;18.38;;;;;;;-1.63;99.47;101055.22;4980911;28;20185;-41
2022/12/13 10:29:16;;;;;;;28.02;18.00;;;;;;;-1.62;98.90;101052.59;4977493;28;20181;-44
2022/12/13 10:31:48;;;;;;;33.20;18.83;;;;;;;-1.56;98.61;101051.81;4971385;28;20201;-45
2022/12/13 10:34:27;;;;;;;27.35;18.25;;;;;;;-1.51;98.66;101050.13;4954150;28;20281;-47
2022/12/13 10:40:47;;;;;;;29.80;18.17;;;;;;;-1.34;98.05;101048.59;4970925;28;20224;-44
2022/12/13 10:43:20;;;;;;;28.38;17.38;;;;;;;-1.24;97.35;101044.38;4990779;28;20247;-44
2022/12/13 10:45:56;;;;;;;28.80;18.98;;;;;;;-1.30;96.45;101034.66;4990906;28;20162;-48
2022/12/13 10:48:49;;;;;;;28.60;18.23;;;;;;;-1.35;96.05;101036.34;4990758;28;20157;-46
2022/12/13 10:51:20;;;;;;;28.98;18.70;;;;;;;-1.55;95.96;101033.44;4990624;28;20211;-45
2022/12/13 10:53:46;;;;;;;29.00;17.05;;;;;;;-1.40;95.93;101024.91;4990704;28;20569;-41
2022/12/13 10:56:12;;;;;;;31.65;18.58;;;;;;;-1.31;96.09;101017.13;4990812;28;20274;-43
2022/12/13 10:58:40;;;;;;;29.23;18.45;;;;;;;-1.33;95.56;101017.97;4990782;28;20174;-45
2022/12/13 11:01:17;;;;;;;28.88;18.10;;;;;;;-1.45;95.27;101006.41;4990542;28;20283;-42
2022/12/13 11:03:56;;;;;;;29.70;18.42;;;;;;;-1.33;95.26;100999.59;4990773;28;20196;-44
2022/12/13 11:06:22;;;;;;;28.77;17.30;;;;;;;-1.26;94.98;101004.03;5005495;28;20177;-43
2022/12/13 11:08:49;;;;;;;28.05;17.13;;;;;;;-1.30;95.00;100997.84;4990602;28;20277;-45
2022/12/13 11:11:25;;;;;;;26.33;16.33;;;;;;;-1.12;94.23;100996.31;4990257;28;20292;-48
2022/12/13 11:13:53;;;;;;;25.73;16.58;;;;;;;-1.40;93.97;100992.47;4990655;28;20268;-43
2022/12/13 11:16:29;;;;;;;27.08;16.65;;;;;;;-1.46;94.34;100988.03;4990395;28;20671;-43